• Join FlightAware (Why Join?)
  • Login
  • US Flag 
08:17PM EDT


 

Airport Tracker/Info


-or-


 

Live Flight TrackerFlight Track Log ✈ DAL6035 ✈ 17-May-2013 ✈ KMHT - KLGA

Flight Track Log - Related Links

Times and Time Zones

All times are in EDT time to prevent confusion due to time zone crossing. See the DAL6035 flight status page for this flight to view local times or setup timezone preferences in your user account.

Time Position Orientation Groundspeed Altitude Reporting Facility
EDT Latitude Longitude Course Direction KTS MPH feet Rate Location/Type
06:06PM 42.9500 -71.4333 232° Southwest 152 175 900  Level KA90
06:07PM 42.9986 -71.4778 326° Northwest 175 201 3,700 2,280 Climbing Boston Center
06:08PM 43.0303 -71.5369 306° West 192 221 6,100 2,700 Climbing Boston Center
06:09PM 42.6763 -71.8474 236° Southwest  Level FlightAware Approximate
06:09PM 43.0664 -71.6158 302° West 218 251 9,100  Level Boston Center
06:10PM 42.6161 -71.9511 231° Southwest  Level FlightAware Approximate
06:10PM 43.0419 -71.6786 242° Southwest 202 232 11,800  Level Boston Center
06:11PM 42.5548 -72.0537 232° Southwest  Level FlightAware Approximate
06:11PM 42.9861 -71.7475 222° Southwest 228 262 13,600  Level Boston Center
06:12PM 42.9322 -71.8106 221° Southwest 275 316 14,900 1,380 Climbing Boston Center
06:13PM 42.8597 -71.8992 222° Southwest 308 354 16,400 1,320 Climbing Boston Center
06:14PM 42.7997 -71.9703 221° Southwest 325 374 17,600 720 Climbing Boston Center
06:15PM 42.7167 -72.0700 221° Southwest 346 398 17,900 120 Climbing Boston Center
06:16PM 42.6439 -72.1522 220° Southwest 376 433 17,900  Level Boston Center
06:17PM 42.5544 -72.2597 222° Southwest 389 448 17,900  Level Boston Center
06:18PM 42.4733 -72.3528 220° Southwest 389 448 17,900  Level Boston Center
06:19PM 42.3919 -72.4486 221° Southwest 389 448 17,900  Level Boston Center
06:20PM 42.3128 -72.5411 221° Southwest 381 438 17,900 -120 Level Boston Center
06:21PM 42.2419 -72.6281 222° Southwest 381 438 17,700 -600 Descending Boston Center
06:22PM 42.1728 -72.7314 228° Southwest 375 432 16,700 -1,080 Descending Boston Center
06:23PM 42.0994 -72.8458 229° Southwest 369 425 15,600 -1,200 Descending Boston Center
06:24PM 42.0386 -72.9433 230° Southwest 359 413 14,400 -840 Descending Boston Center
06:25PM 41.9903 -73.0239 231° Southwest 318 366 14,000 -300 Descending Boston Center
06:26PM 41.9358 -73.1128 231° Southwest 302 348 13,900  Descending Boston Center
06:27PM 41.8811 -73.1958 229° Southwest 308 354 14,000  Climbing Boston Center
06:28PM 41.8261 -73.2842 230° Southwest 308 354 14,000  Level Boston Center
06:29PM 41.7756 -73.3725 233° Southwest 303 349 14,000 -360 Level Boston Center
06:30PM 41.7497 -73.4586 248° West 279 321 13,300 -1,200 Descending Boston Center
06:31PM 41.7175 -73.5692 249° West 285 328 11,700 -1,200 Descending Boston Center
06:32PM 41.6917 -73.6522 247° West 285 328 11,000 -780 Descending Boston Center
06:33PM 41.6592 -73.7572 248° West 291 335 10,200 -960 Descending Boston Center
06:34PM 41.6353 -73.8372 248° West 276 318 9,100 -480 Descending Boston Center
06:36PM 41.5167 -73.8833 196° South 300 345 9,000 -60 Descending New York TRACON
06:37PM 41.4333 -73.8833 180° South 309 356 9,000 -300 Level New York TRACON
06:38PM 41.3667 -73.8167 143° Southeast 312 359 8,400 -540 Descending New York TRACON
06:39PM 41.3000 -73.7500 143° Southeast 279 321 8,000 -420 Descending New York TRACON
06:40PM 41.2333 -73.7000 151° Southeast 264 304 7,600 -960 Descending New York TRACON
06:41PM 41.1667 -73.6667 159° South 259 298 6,100 -1,560 Descending New York TRACON
06:42PM 41.1000 -73.6333 159° South 257 296 4,500 -1,080 Descending New York TRACON
06:43PM 41.0333 -73.6167 169° South 233 268 4,000 -240 Descending New York TRACON
06:44PM 40.9833 -73.6000 166° South 235 270 4,100  Climbing New York TRACON
06:45PM 40.9167 -73.5833 169° South 246 283 4,100  Level New York TRACON
06:46PM 40.8667 -73.6333 217° Southwest 230 265 4,100  Level New York TRACON
06:47PM 40.8000 -73.6833 210° Southwest 224 258 4,100 -60 Level New York TRACON
06:48PM 40.7833 -73.7500 252° West 216 249 4,000  Descending New York TRACON
06:49PM 40.7833 -73.8333 270° West 217 250 4,100  Climbing New York TRACON
06:50PM 40.7667 -73.9167 255° West 221 254 4,000 -60 Descending New York TRACON
06:51PM 40.7500 -74.0000 255° West 224 258 4,000  Level New York TRACON
06:52PM 40.7167 -74.0500 229° Southwest 228 262 4,100 60 Climbing New York TRACON